createdAt,value
2017-08-16T00:00:26.554Z,0
2017-08-16T00:01:26.534Z,0
2017-08-16T00:02:26.834Z,0
2017-08-16T00:03:26.502Z,0
2017-08-16T00:04:26.186Z,0
2017-08-16T00:05:26.794Z,0
2017-08-16T00:06:26.497Z,0
2017-08-16T00:07:26.442Z,0
2017-08-16T00:08:26.860Z,0
2017-08-16T00:09:26.125Z,0
2017-08-16T00:10:26.566Z,0
2017-08-16T00:11:26.427Z,0
2017-08-16T00:12:26.692Z,0
2017-08-16T00:13:26.395Z,0
2017-08-16T00:14:26.692Z,0
2017-08-16T00:15:26.352Z,0
2017-08-16T00:16:26.725Z,0
2017-08-16T00:17:26.759Z,0
2017-08-16T00:18:26.309Z,0
2017-08-16T00:19:26.304Z,0
2017-08-16T00:20:26.315Z,0
2017-08-16T00:21:26.603Z,0
2017-08-16T00:22:26.621Z,0
2017-08-16T00:23:26.565Z,0
2017-08-16T00:24:26.294Z,0
2017-08-16T00:25:26.539Z,0
2017-08-16T00:26:26.523Z,0
2017-08-16T00:27:26.512Z,0
2017-08-16T00:28:26.534Z,0
2017-08-16T00:29:26.570Z,0
2017-08-16T00:30:26.488Z,0
2017-08-16T00:31:26.570Z,0
2017-08-16T00:32:26.464Z,0
2017-08-16T00:33:26.474Z,0
2017-08-16T00:34:26.422Z,0
2017-08-16T00:35:26.391Z,0
2017-08-16T00:36:26.186Z,0
2017-08-16T00:37:26.431Z,0
2017-08-16T00:38:26.341Z,0
2017-08-16T00:39:26.360Z,0
2017-08-16T00:40:26.374Z,0
2017-08-16T00:41:26.012Z,0
2017-08-16T00:42:25.999Z,0
2017-08-16T00:43:26.303Z,0
2017-08-16T00:44:25.966Z,0
2017-08-16T00:45:25.963Z,0
2017-08-16T00:46:25.627Z,0
2017-08-16T00:47:26.252Z,0
2017-08-16T00:48:25.912Z,0
2017-08-16T00:49:26.223Z,0
2017-08-16T00:50:26.183Z,0
2017-08-16T00:51:25.883Z,0
2017-08-16T00:52:25.852Z,0
2017-08-16T00:53:26.162Z,0
2017-08-16T00:54:25.523Z,0
2017-08-16T00:55:25.522Z,0
2017-08-16T00:56:25.544Z,0
2017-08-16T00:57:26.142Z,0
2017-08-16T00:58:25.770Z,0
2017-08-16T00:59:26.066Z,0
2017-08-16T01:00:26.062Z,0
2017-08-16T01:01:25.737Z,0
2017-08-16T01:02:25.722Z,0
2017-08-16T01:03:26.003Z,0
2017-08-16T01:04:26.002Z,0
2017-08-16T01:05:25.992Z,0
2017-08-16T01:06:25.671Z,0
2017-08-16T01:07:25.666Z,0
2017-08-16T01:08:25.951Z,0
2017-08-16T01:09:25.942Z,0
2017-08-16T01:10:25.934Z,0
2017-08-16T01:11:25.912Z,0
2017-08-16T01:12:25.908Z,0
2017-08-16T01:13:25.902Z,0
2017-08-16T01:14:25.872Z,0
2017-08-16T01:15:25.847Z,0
2017-08-16T01:16:25.242Z,0
2017-08-16T01:17:25.832Z,0
2017-08-16T01:18:25.816Z,0
2017-08-16T01:19:25.554Z,0
2017-08-16T01:20:25.230Z,0
2017-08-16T01:21:25.481Z,0
2017-08-16T01:22:25.160Z,0
2017-08-16T01:23:25.190Z,0
2017-08-16T01:24:25.431Z,0
2017-08-16T01:25:25.129Z,0
2017-08-16T01:26:25.421Z,0
2017-08-16T01:27:25.434Z,0
2017-08-16T01:28:25.117Z,0
2017-08-16T01:29:25.366Z,0
2017-08-16T01:30:25.661Z,0
2017-08-16T01:31:25.130Z,0
2017-08-16T01:32:25.013Z,0
2017-08-16T01:33:25.320Z,0
2017-08-16T01:34:25.591Z,0
2017-08-16T01:35:25.390Z,0
2017-08-16T01:36:25.372Z,0
2017-08-16T01:37:25.267Z,0
2017-08-16T01:38:25.660Z,0
2017-08-16T01:39:25.242Z,0
2017-08-16T01:40:25.333Z,0
2017-08-16T01:41:25.506Z,0
2017-08-16T01:42:25.261Z,0
2017-08-16T01:43:25.172Z,0
2017-08-16T01:44:25.261Z,0
2017-08-16T01:45:25.159Z,0
2017-08-16T01:46:25.542Z,0
2017-08-16T01:47:25.501Z,0
2017-08-16T01:48:24.833Z,0
2017-08-16T01:49:25.087Z,0
2017-08-16T01:50:25.392Z,0
2017-08-16T01:51:25.072Z,0
2017-08-16T01:52:25.400Z,0
2017-08-16T01:53:25.052Z,0
2017-08-16T01:54:25.041Z,0
2017-08-16T01:55:25.313Z,0
2017-08-16T01:56:25.350Z,0
2017-08-16T01:57:25.043Z,0
2017-08-16T01:58:24.968Z,0
2017-08-16T01:59:25.035Z,0
2017-08-16T02:00:24.952Z,0
2017-08-16T02:01:24.928Z,0
2017-08-16T02:02:24.601Z,0
2017-08-16T02:03:24.931Z,0
2017-08-16T02:04:24.573Z,0
2017-08-16T02:05:24.251Z,0
2017-08-16T02:06:24.855Z,0
2017-08-16T02:07:25.153Z,0
2017-08-16T02:08:24.845Z,0
2017-08-16T02:09:24.527Z,0
2017-08-16T02:10:25.121Z,0
2017-08-16T02:11:24.873Z,0
2017-08-16T02:12:25.139Z,0
2017-08-16T02:13:24.770Z,0
2017-08-16T02:14:24.450Z,0
2017-08-16T02:15:24.727Z,0
2017-08-16T02:16:24.420Z,0
2017-08-16T02:17:25.022Z,0
2017-08-16T02:18:24.692Z,0
2017-08-16T02:19:24.680Z,0
2017-08-16T02:20:24.981Z,0
2017-08-16T02:21:24.961Z,0
2017-08-16T02:22:24.333Z,0
2017-08-16T02:23:24.643Z,0
2017-08-16T02:24:24.929Z,0
2017-08-16T02:25:24.601Z,0
2017-08-16T02:26:24.592Z,0
2017-08-16T02:27:24.870Z,0
2017-08-16T02:28:24.861Z,0
2017-08-16T02:29:24.876Z,0
2017-08-16T02:30:24.523Z,0
2017-08-16T02:31:24.210Z,0
2017-08-16T02:32:24.818Z,0
2017-08-16T02:33:24.502Z,0
2017-08-16T02:34:24.480Z,0
2017-08-16T02:35:24.162Z,0
2017-08-16T02:36:24.142Z,0
2017-08-16T02:37:24.152Z,0
2017-08-16T02:38:24.485Z,0
2017-08-16T02:39:24.403Z,0
2017-08-16T02:40:24.411Z,0
2017-08-16T02:41:23.761Z,0
2017-08-16T02:42:24.064Z,0
2017-08-16T02:43:24.353Z,0
2017-08-16T02:44:24.054Z,0
2017-08-16T02:45:24.318Z,0
2017-08-16T02:46:24.011Z,0
2017-08-16T02:47:24.001Z,0
2017-08-16T02:48:24.612Z,0
2017-08-16T02:49:23.987Z,0
2017-08-16T02:50:24.251Z,0
2017-08-16T02:51:23.954Z,0
2017-08-16T02:52:24.231Z,0
2017-08-16T02:53:24.231Z,0
2017-08-16T02:54:24.503Z,0
2017-08-16T02:55:24.195Z,0
2017-08-16T02:56:24.471Z,0
2017-08-16T02:57:24.171Z,0
2017-08-16T02:58:24.451Z,0
2017-08-16T02:59:24.152Z,0
2017-08-16T03:00:23.822Z,0
2017-08-16T03:01:24.112Z,0
2017-08-16T03:02:24.101Z,0
2017-08-16T03:03:24.091Z,0
2017-08-16T03:04:24.072Z,0
2017-08-16T03:05:24.065Z,0
2017-08-16T03:06:24.141Z,0
2017-08-16T03:07:24.028Z,0
2017-08-16T03:08:23.750Z,0
2017-08-16T03:09:24.302Z,0
2017-08-16T03:10:24.133Z,0
2017-08-16T03:11:24.311Z,0
2017-08-16T03:12:24.010Z,0
2017-08-16T03:13:23.958Z,0
2017-08-16T03:14:23.993Z,0
2017-08-16T03:15:23.932Z,0
2017-08-16T03:16:24.003Z,0
2017-08-16T03:17:24.231Z,0
2017-08-16T03:18:23.894Z,0
2017-08-16T03:19:24.222Z,0
2017-08-16T03:20:23.913Z,0
2017-08-16T03:21:24.169Z,0
2017-08-16T03:22:23.875Z,0
2017-08-16T03:23:23.852Z,0
2017-08-16T03:24:24.112Z,0
2017-08-16T03:25:23.805Z,0
2017-08-16T03:26:24.108Z,0
2017-08-16T03:27:24.067Z,0
2017-08-16T03:28:24.057Z,0
2017-08-16T03:29:24.062Z,0
2017-08-16T03:30:24.032Z,0
2017-08-16T03:31:24.011Z,0
2017-08-16T03:32:23.993Z,0
2017-08-16T03:33:23.687Z,0
2017-08-16T03:34:23.973Z,0
2017-08-16T03:35:23.967Z,0
2017-08-16T03:36:23.941Z,0
2017-08-16T03:37:23.925Z,0
2017-08-16T03:38:23.920Z,0
2017-08-16T03:39:23.621Z,0
2017-08-16T03:40:23.311Z,0
2017-08-16T03:41:23.552Z,0
2017-08-16T03:42:23.553Z,0
2017-08-16T03:43:23.858Z,0
2017-08-16T03:44:23.522Z,0
2017-08-16T03:45:23.827Z,0
2017-08-16T03:46:23.802Z,0
2017-08-16T03:47:23.481Z,0
2017-08-16T03:48:22.851Z,4
2017-08-16T03:49:23.441Z,4
2017-08-16T03:50:23.434Z,4
2017-08-16T03:51:23.437Z,0
2017-08-16T03:52:23.419Z,4
2017-08-16T03:53:23.392Z,4
2017-08-16T03:54:23.084Z,4
2017-08-16T03:55:23.681Z,4
2017-08-16T03:56:23.671Z,8
2017-08-16T03:57:23.645Z,8
2017-08-16T03:58:23.643Z,8
2017-08-16T03:59:23.623Z,12
2017-08-16T04:00:23.600Z,12
2017-08-16T04:01:23.592Z,12
2017-08-16T04:02:23.590Z,16
2017-08-16T04:03:23.566Z,20
2017-08-16T04:04:23.562Z,20
2017-08-16T04:05:23.552Z,24
2017-08-16T04:06:23.677Z,28
2017-08-16T04:07:23.501Z,28
2017-08-16T04:08:22.904Z,32
2017-08-16T04:09:23.248Z,32
2017-08-16T04:10:23.482Z,36
2017-08-16T04:11:23.166Z,40
2017-08-16T04:12:22.860Z,44
2017-08-16T04:13:23.132Z,48
2017-08-16T04:14:22.801Z,52
2017-08-16T04:15:22.783Z,52
2017-08-16T04:16:22.761Z,52
2017-08-16T04:17:23.101Z,52
2017-08-16T04:18:23.092Z,56
2017-08-16T04:19:22.748Z,60
2017-08-16T04:20:23.329Z,68
2017-08-16T04:21:23.053Z,76
2017-08-16T04:22:22.990Z,88
2017-08-16T04:23:23.269Z,96
2017-08-16T04:24:22.980Z,100
2017-08-16T04:25:22.996Z,112
2017-08-16T04:26:23.241Z,124
2017-08-16T04:27:23.020Z,132
2017-08-16T04:28:23.251Z,148
2017-08-16T04:29:23.201Z,156
2017-08-16T04:30:23.208Z,172
2017-08-16T04:31:23.170Z,188
2017-08-16T04:32:22.222Z,212
2017-08-16T04:33:22.229Z,236
2017-08-16T04:34:23.138Z,260
2017-08-16T04:35:22.927Z,288
2017-08-16T04:36:22.815Z,316
2017-08-16T04:37:22.482Z,348
2017-08-16T04:38:22.754Z,376
2017-08-16T04:39:23.071Z,408
2017-08-16T04:40:22.730Z,432
2017-08-16T04:41:22.722Z,464
2017-08-16T04:42:23.072Z,488
2017-08-16T04:43:22.990Z,512
2017-08-16T04:44:23.087Z,552
2017-08-16T04:45:22.668Z,584
2017-08-16T04:46:22.662Z,608
2017-08-16T04:47:22.341Z,632
2017-08-16T04:48:22.635Z,652
2017-08-16T04:49:22.311Z,664
2017-08-16T04:50:22.599Z,668
2017-08-16T04:51:22.951Z,668
2017-08-16T04:52:22.563Z,700
2017-08-16T04:53:22.553Z,732
2017-08-16T04:54:22.897Z,760
2017-08-16T04:55:22.237Z,784
2017-08-16T04:56:22.510Z,808
2017-08-16T04:57:22.216Z,796
2017-08-16T04:58:22.487Z,808
2017-08-16T04:59:22.764Z,856
2017-08-16T05:00:22.890Z,856
2017-08-16T05:01:22.141Z,872
2017-08-16T05:02:22.429Z,916
2017-08-16T05:03:22.412Z,980
2017-08-16T05:04:22.392Z,1008
2017-08-16T05:05:22.383Z,1052
2017-08-16T05:06:22.370Z,1100
2017-08-16T05:07:22.354Z,1140
2017-08-16T05:08:22.344Z,1156
2017-08-16T05:09:21.711Z,1188
2017-08-16T05:10:22.622Z,1224
2017-08-16T05:11:22.310Z,1252
2017-08-16T05:12:22.352Z,1256
2017-08-16T05:13:21.961Z,1276
2017-08-16T05:14:21.948Z,1308
2017-08-16T05:15:22.270Z,1384
2017-08-16T05:16:22.557Z,1476
2017-08-16T05:17:22.525Z,1620
2017-08-16T05:18:22.200Z,1744
2017-08-16T05:19:22.492Z,1844
2017-08-16T05:20:22.512Z,1956
2017-08-16T05:21:22.159Z,2040
2017-08-16T05:22:21.833Z,2080
2017-08-16T05:23:22.131Z,2104
2017-08-16T05:24:22.111Z,2188
2017-08-16T05:25:21.800Z,2320
2017-08-16T05:26:21.476Z,2384
2017-08-16T05:27:21.771Z,2416
2017-08-16T05:28:21.866Z,2420
2017-08-16T05:29:22.092Z,2452
2017-08-16T05:30:22.018Z,2460
2017-08-16T05:31:21.793Z,2484
2017-08-16T05:32:21.990Z,2532
2017-08-16T05:33:22.003Z,2544
2017-08-16T05:34:21.980Z,2540
2017-08-16T05:35:22.051Z,2580
2017-08-16T05:36:21.660Z,2656
2017-08-16T05:37:22.239Z,2636
2017-08-16T05:38:22.226Z,2736
2017-08-16T05:39:21.692Z,2512
2017-08-16T05:40:22.214Z,2340
2017-08-16T05:41:21.892Z,2456
2017-08-16T05:42:21.859Z,2700
2017-08-16T05:43:22.157Z,2764
2017-08-16T05:44:21.828Z,2692
2017-08-16T05:45:21.860Z,2492
2017-08-16T05:46:21.810Z,2112
2017-08-16T05:47:21.780Z,1928
2017-08-16T05:48:21.845Z,1716
2017-08-16T05:49:22.064Z,1716
2017-08-16T05:50:21.772Z,1796
2017-08-16T05:51:21.753Z,1804
2017-08-16T05:52:21.720Z,1788
2017-08-16T05:53:22.010Z,1804
2017-08-16T05:54:21.701Z,1832
2017-08-16T05:55:21.994Z,1896
2017-08-16T05:56:21.761Z,1836
2017-08-16T05:57:21.732Z,2024
2017-08-16T05:58:21.670Z,2020
2017-08-16T05:59:22.050Z,1980
2017-08-16T06:00:21.632Z,2232
2017-08-16T06:01:21.611Z,2572
2017-08-16T06:02:21.279Z,2796
2017-08-16T06:03:21.861Z,2788
2017-08-16T06:04:21.656Z,2812
2017-08-16T06:05:21.550Z,2780
2017-08-16T06:06:21.860Z,3144
2017-08-16T06:07:21.902Z,3836
2017-08-16T06:08:21.881Z,4392
2017-08-16T06:09:21.602Z,4780
2017-08-16T06:10:21.791Z,5152
2017-08-16T06:11:21.839Z,5112
2017-08-16T06:12:21.754Z,4912
2017-08-16T06:13:21.839Z,4876
2017-08-16T06:14:21.808Z,4948
2017-08-16T06:15:21.742Z,5236
2017-08-16T06:16:21.732Z,5372
2017-08-16T06:17:21.712Z,5260
2017-08-16T06:18:21.732Z,5372
2017-08-16T06:19:21.678Z,5504
2017-08-16T06:20:21.347Z,5428
2017-08-16T06:21:21.652Z,5640
2017-08-16T06:22:21.333Z,5656
2017-08-16T06:23:21.611Z,5476
2017-08-16T06:24:21.643Z,5480
2017-08-16T06:25:21.620Z,5656
2017-08-16T06:26:21.573Z,5744
2017-08-16T06:27:21.583Z,6192
2017-08-16T06:28:21.636Z,6480
2017-08-16T06:29:21.634Z,6616
2017-08-16T06:30:21.207Z,7056
2017-08-16T06:31:21.561Z,7316
2017-08-16T06:32:21.154Z,7196
2017-08-16T06:33:21.191Z,7216
2017-08-16T06:34:21.142Z,7328
2017-08-16T06:35:20.821Z,7280
2017-08-16T06:36:21.118Z,7276
2017-08-16T06:37:21.112Z,7304
2017-08-16T06:38:21.404Z,7368
2017-08-16T06:39:21.072Z,7260
2017-08-16T06:40:21.082Z,7240
2017-08-16T06:41:21.382Z,6920
2017-08-16T06:42:21.361Z,7040
2017-08-16T06:43:20.731Z,7140
2017-08-16T06:44:21.331Z,7272
2017-08-16T06:45:20.381Z,7524
2017-08-16T06:46:20.711Z,7500
2017-08-16T06:47:21.291Z,7568
2017-08-16T06:48:20.970Z,7584
2017-08-16T06:49:20.659Z,7464
2017-08-16T06:50:21.271Z,7944
2017-08-16T06:51:20.941Z,7568
2017-08-16T06:52:21.221Z,7164
2017-08-16T06:53:21.213Z,7664
2017-08-16T06:54:20.583Z,7532
2017-08-16T06:55:20.583Z,7648
2017-08-16T06:56:21.211Z,7796
2017-08-16T06:57:20.541Z,8096
2017-08-16T06:58:21.171Z,8464
2017-08-16T06:59:20.852Z,8648
2017-08-16T07:00:21.121Z,8852
2017-08-16T07:01:21.111Z,8412
2017-08-16T07:02:20.798Z,8268
2017-08-16T07:03:20.851Z,8052
2017-08-16T07:04:21.092Z,8236
2017-08-16T07:05:20.767Z,8392
2017-08-16T07:06:21.057Z,9916
2017-08-16T07:07:21.057Z,9880
2017-08-16T07:08:20.435Z,9752
2017-08-16T07:09:21.022Z,9412
2017-08-16T07:10:20.701Z,9960
2017-08-16T07:11:20.721Z,9856
2017-08-16T07:12:20.372Z,9972
2017-08-16T07:13:21.072Z,10288
2017-08-16T07:14:20.662Z,10632
2017-08-16T07:15:20.941Z,11044
2017-08-16T07:16:20.653Z,11372
2017-08-16T07:17:20.322Z,11280
2017-08-16T07:18:20.602Z,11768
2017-08-16T07:19:20.599Z,21504
2017-08-16T07:20:20.572Z,30080
2017-08-16T07:21:20.423Z,29216
2017-08-16T07:22:20.969Z,26144
2017-08-16T07:23:20.573Z,22304
2017-08-16T07:24:20.838Z,13456
2017-08-16T07:25:20.200Z,11428
2017-08-16T07:26:20.840Z,11580
2017-08-16T07:27:20.932Z,12168
2017-08-16T07:28:20.482Z,12544
2017-08-16T07:29:20.473Z,12620
2017-08-16T07:30:20.452Z,12728
2017-08-16T07:31:20.882Z,12852
2017-08-16T07:32:20.760Z,13040
2017-08-16T07:33:20.450Z,13080
2017-08-16T07:34:20.422Z,13552
2017-08-16T07:35:20.732Z,31168
2017-08-16T07:36:20.412Z,61888
2017-08-16T07:37:20.102Z,84352
2017-08-16T07:38:20.722Z,89728
2017-08-16T07:39:20.403Z,90784
2017-08-16T07:40:20.076Z,84000
2017-08-16T07:41:20.394Z,86976
2017-08-16T07:42:20.722Z,90496
2017-08-16T07:43:20.687Z,88992
2017-08-16T07:44:20.061Z,88576
2017-08-16T07:45:20.382Z,92224
2017-08-16T07:46:20.373Z,99776
2017-08-16T07:47:20.687Z,95616
2017-08-16T07:48:19.781Z,83104
2017-08-16T07:49:20.672Z,86272
2017-08-16T07:50:20.671Z,88512
2017-08-16T07:51:20.675Z,91936
2017-08-16T07:52:20.673Z,91328
2017-08-16T07:53:20.363Z,88096
2017-08-16T07:54:20.338Z,88864
2017-08-16T07:55:20.643Z,88448
2017-08-16T07:56:20.114Z,79456
2017-08-16T07:57:20.644Z,74016
2017-08-16T07:58:20.650Z,52992
2017-08-16T07:59:19.798Z,92704
2017-08-16T08:00:20.714Z,93856
2017-08-16T08:01:20.391Z,91904
2017-08-16T08:02:20.075Z,85632
2017-08-16T08:03:20.383Z,77440
2017-08-16T08:04:20.632Z,88992
2017-08-16T08:05:20.031Z,94912
2017-08-16T08:06:19.716Z,76896
2017-08-16T08:07:20.018Z,76800
2017-08-16T08:08:20.633Z,90688
2017-08-16T08:09:20.653Z,92704
2017-08-16T08:10:20.632Z,90688
2017-08-16T08:11:20.651Z,87424
2017-08-16T08:12:20.652Z,80224
2017-08-16T08:13:20.644Z,80064
2017-08-16T08:14:20.349Z,84992
2017-08-16T08:15:20.654Z,89088
2017-08-16T08:16:20.643Z,88192
2017-08-16T08:17:20.364Z,85824
2017-08-16T08:18:20.346Z,85600
2017-08-16T08:19:20.071Z,89504
2017-08-16T08:20:20.660Z,89184
2017-08-16T08:21:20.472Z,88960
2017-08-16T08:22:20.641Z,88800
2017-08-16T08:23:20.661Z,89696
2017-08-16T08:24:20.388Z,88928
2017-08-16T08:25:20.664Z,83328
2017-08-16T08:26:20.683Z,74048
2017-08-16T08:27:20.465Z,70336
2017-08-16T08:28:20.670Z,67136
2017-08-16T08:29:20.698Z,48608
2017-08-16T08:30:20.755Z,40192
2017-08-16T08:31:20.362Z,56640
2017-08-16T08:32:20.131Z,67520
2017-08-16T08:33:20.073Z,55328
2017-08-16T08:34:20.381Z,57728
2017-08-16T08:35:20.683Z,69408
2017-08-16T08:36:20.701Z,64896
2017-08-16T08:37:20.680Z,57728
2017-08-16T08:38:20.687Z,54144
2017-08-16T08:39:20.093Z,50592
2017-08-16T08:40:20.370Z,57088
2017-08-16T08:41:20.130Z,65344
2017-08-16T08:42:20.399Z,60704
2017-08-16T08:43:20.723Z,59904
2017-08-16T08:44:20.830Z,64192
2017-08-16T08:45:20.113Z,64448
2017-08-16T08:46:20.753Z,62400
2017-08-16T08:47:20.735Z,69664
2017-08-16T08:48:20.842Z,66240
2017-08-16T08:49:20.412Z,66784
2017-08-16T08:50:20.704Z,62752
2017-08-16T08:51:20.451Z,52032
2017-08-16T08:52:20.772Z,46240
2017-08-16T08:53:20.758Z,45088
2017-08-16T08:54:20.131Z,43232
2017-08-16T08:55:20.420Z,41632
2017-08-16T08:56:20.453Z,40928
2017-08-16T08:57:20.125Z,40704
2017-08-16T08:58:20.432Z,38784
2017-08-16T08:59:20.751Z,40480
2017-08-16T09:00:20.454Z,48416
2017-08-16T09:01:20.453Z,52384
2017-08-16T09:02:20.483Z,54208
2017-08-16T09:03:20.143Z,57856
2017-08-16T09:04:20.762Z,68608
2017-08-16T09:05:20.751Z,69088
2017-08-16T09:06:20.767Z,77024
2017-08-16T09:07:20.802Z,84960
2017-08-16T09:08:20.775Z,79456
2017-08-16T09:09:20.471Z,69408
2017-08-16T09:10:20.461Z,66784
2017-08-16T09:11:20.636Z,68224
2017-08-16T09:12:20.802Z,75456
2017-08-16T09:13:20.532Z,77312
2017-08-16T09:14:20.482Z,79136
2017-08-16T09:15:20.200Z,79744
2017-08-16T09:16:19.871Z,79296
2017-08-16T09:17:20.808Z,81376
2017-08-16T09:18:20.837Z,82272
2017-08-16T09:19:20.190Z,77728
2017-08-16T09:20:20.492Z,78240
2017-08-16T09:21:20.810Z,79744
2017-08-16T09:22:20.810Z,76192
2017-08-16T09:23:20.525Z,76384
2017-08-16T09:24:20.812Z,72960
2017-08-16T09:25:20.811Z,71744
2017-08-16T09:26:20.521Z,74976
2017-08-16T09:27:20.829Z,74816
2017-08-16T09:28:20.220Z,73984
2017-08-16T09:29:20.221Z,67008
2017-08-16T09:30:20.527Z,70784
2017-08-16T09:31:20.821Z,70784
2017-08-16T09:32:20.540Z,73024
2017-08-16T09:33:20.528Z,70016
2017-08-16T09:34:20.640Z,64192
2017-08-16T09:35:20.847Z,63200
2017-08-16T09:36:20.872Z,57760
2017-08-16T09:37:20.911Z,66016
2017-08-16T09:38:20.543Z,71168
2017-08-16T09:39:20.859Z,68480
2017-08-16T09:40:20.541Z,67040
2017-08-16T09:41:20.568Z,68224
2017-08-16T09:42:20.888Z,66944
2017-08-16T09:43:20.243Z,67456
2017-08-16T09:44:20.239Z,64544
2017-08-16T09:45:20.555Z,61696
2017-08-16T09:46:20.230Z,59456
2017-08-16T09:47:20.562Z,59552
2017-08-16T09:48:20.564Z,56256
2017-08-16T09:49:20.889Z,53056
2017-08-16T09:50:20.256Z,53376
2017-08-16T09:51:20.973Z,52704
2017-08-16T09:52:20.890Z,50720
2017-08-16T09:53:20.880Z,51232
2017-08-16T09:54:20.567Z,51552
2017-08-16T09:55:20.319Z,50912
2017-08-16T09:56:20.590Z,51904
2017-08-16T09:57:20.981Z,53280
2017-08-16T09:58:20.885Z,53344
2017-08-16T09:59:20.630Z,50176
2017-08-16T10:00:20.277Z,46720
2017-08-16T10:01:20.259Z,47904
2017-08-16T10:02:20.887Z,45536
2017-08-16T10:03:20.887Z,48800
2017-08-16T10:04:20.888Z,50784
2017-08-16T10:05:20.919Z,52288
2017-08-16T10:06:20.294Z,56000
2017-08-16T10:07:20.271Z,53600
2017-08-16T10:08:20.589Z,49856
2017-08-16T10:09:20.299Z,49088
2017-08-16T10:10:20.899Z,2936
2017-08-16T10:11:20.601Z,2896
2017-08-16T10:12:20.878Z,2872
2017-08-16T10:13:20.271Z,2936
2017-08-16T10:14:20.893Z,2992
2017-08-16T10:15:20.890Z,2984
2017-08-16T10:16:20.582Z,3068
2017-08-16T10:17:20.882Z,3064
2017-08-16T10:18:20.996Z,3036
2017-08-16T10:19:20.859Z,3092
2017-08-16T10:20:20.575Z,3036
2017-08-16T10:21:20.261Z,2836
2017-08-16T10:22:20.638Z,2696
2017-08-16T10:23:20.543Z,2816
2017-08-16T10:24:20.543Z,2980
2017-08-16T10:25:20.570Z,3096
2017-08-16T10:26:20.559Z,3092
2017-08-16T10:27:20.829Z,3152
2017-08-16T10:28:20.585Z,3244
2017-08-16T10:29:20.208Z,3276
2017-08-16T10:30:20.829Z,3308
2017-08-16T10:31:20.810Z,3340
2017-08-16T10:32:20.829Z,3364
2017-08-16T10:33:20.848Z,3376
2017-08-16T10:34:20.788Z,3324
2017-08-16T10:35:20.797Z,3320
2017-08-16T10:36:20.471Z,3348
2017-08-16T10:37:20.482Z,3304
2017-08-16T10:38:20.780Z,3308
2017-08-16T10:39:20.238Z,3344
2017-08-16T10:40:20.773Z,3040
2017-08-16T10:41:20.768Z,2680
2017-08-16T10:42:20.752Z,3000
2017-08-16T10:43:20.508Z,3036
2017-08-16T10:44:20.421Z,3308
2017-08-16T10:45:20.739Z,3440
2017-08-16T10:46:20.731Z,3432
2017-08-16T10:47:20.453Z,3480
2017-08-16T10:48:20.419Z,3436
2017-08-16T10:49:20.521Z,3396
2017-08-16T10:50:20.098Z,3448
2017-08-16T10:51:20.731Z,3484
2017-08-16T10:52:20.680Z,3416
2017-08-16T10:53:20.777Z,3320
2017-08-16T10:54:20.388Z,3328
2017-08-16T10:55:20.431Z,3332
2017-08-16T10:56:20.360Z,3256
2017-08-16T10:57:20.463Z,3268
2017-08-16T10:58:20.458Z,3232
2017-08-16T10:59:20.367Z,3188
2017-08-16T11:00:20.649Z,3292
2017-08-16T11:01:20.426Z,3228
2017-08-16T11:02:20.030Z,3160
2017-08-16T11:03:20.628Z,2808
2017-08-16T11:04:20.670Z,2700
2017-08-16T11:05:20.320Z,3112
2017-08-16T11:06:20.611Z,3100
2017-08-16T11:07:20.288Z,3312
2017-08-16T11:08:20.290Z,3460
2017-08-16T11:09:20.299Z,2988
2017-08-16T11:10:20.321Z,2968
2017-08-16T11:11:19.970Z,3060
2017-08-16T11:12:20.591Z,2772
2017-08-16T11:13:20.251Z,1720
2017-08-16T11:14:20.549Z,2680
2017-08-16T11:15:20.392Z,2656
2017-08-16T11:16:20.255Z,3292
2017-08-16T11:17:20.219Z,3412
2017-08-16T11:18:20.520Z,3276
2017-08-16T11:19:20.209Z,3388
2017-08-16T11:20:20.541Z,3240
2017-08-16T11:21:20.520Z,3256
2017-08-16T11:22:19.908Z,3192
2017-08-16T11:23:20.499Z,3184
2017-08-16T11:24:20.176Z,3248
2017-08-16T11:25:19.881Z,3244
2017-08-16T11:26:20.188Z,3372
2017-08-16T11:27:19.859Z,2452
2017-08-16T11:28:19.922Z,2484
2017-08-16T11:29:20.141Z,3244
2017-08-16T11:30:20.467Z,1940
2017-08-16T11:31:20.150Z,2296
2017-08-16T11:32:19.517Z,2376
2017-08-16T11:33:20.132Z,3288
2017-08-16T11:34:19.856Z,3384
2017-08-16T11:35:20.509Z,3468
2017-08-16T11:36:19.801Z,3300
2017-08-16T11:37:19.819Z,3100
2017-08-16T11:38:20.088Z,2828
2017-08-16T11:39:20.399Z,3144
2017-08-16T11:40:20.427Z,2520
2017-08-16T11:41:20.087Z,3292
2017-08-16T11:42:20.343Z,2032
2017-08-16T11:43:19.754Z,3228
2017-08-16T11:44:20.041Z,1720
2017-08-16T11:45:20.339Z,1660
2017-08-16T11:46:20.038Z,1656
2017-08-16T11:47:20.342Z,1628
2017-08-16T11:48:20.020Z,1640
2017-08-16T11:49:20.011Z,1608
2017-08-16T11:50:19.782Z,1532
2017-08-16T11:51:20.010Z,1852
2017-08-16T11:52:19.704Z,2284
2017-08-16T11:53:20.270Z,2512
2017-08-16T11:54:19.978Z,2560
2017-08-16T11:55:20.008Z,2436
2017-08-16T11:56:19.332Z,2384
2017-08-16T11:57:20.305Z,2520
2017-08-16T11:58:19.948Z,2608
2017-08-16T11:59:20.020Z,2176
2017-08-16T12:00:19.308Z,2656
2017-08-16T12:01:19.608Z,2972
2017-08-16T12:02:20.219Z,2388
2017-08-16T12:03:19.991Z,3096
2017-08-16T12:04:19.959Z,3160
2017-08-16T12:05:19.300Z,3052
2017-08-16T12:06:19.889Z,3300
2017-08-16T12:07:19.928Z,3164
2017-08-16T12:08:20.288Z,2428
2017-08-16T12:09:20.178Z,3120
2017-08-16T12:10:19.840Z,2968
2017-08-16T12:11:20.159Z,2904
2017-08-16T12:12:20.440Z,2656
2017-08-16T12:13:20.229Z,3180
2017-08-16T12:14:19.839Z,2072
2017-08-16T12:15:19.498Z,2092
2017-08-16T12:16:20.116Z,2108
2017-08-16T12:17:19.478Z,2248
2017-08-16T12:18:19.496Z,3048
2017-08-16T12:19:20.134Z,3376
2017-08-16T12:20:19.779Z,3572
2017-08-16T12:21:19.768Z,3368
2017-08-16T12:22:19.780Z,3448
2017-08-16T12:23:19.747Z,3420
2017-08-16T12:24:19.439Z,3676
2017-08-16T12:25:20.092Z,3832
2017-08-16T12:26:20.047Z,3748
2017-08-16T12:27:20.089Z,3448
2017-08-16T12:28:19.739Z,3632
2017-08-16T12:29:19.718Z,3444
2017-08-16T12:30:19.704Z,3692
2017-08-16T12:31:20.020Z,3632
2017-08-16T12:32:19.994Z,3600
2017-08-16T12:33:19.977Z,3492
2017-08-16T12:34:19.978Z,3348
2017-08-16T12:35:19.651Z,3356
2017-08-16T12:36:19.987Z,3424
2017-08-16T12:37:19.658Z,2548
2017-08-16T12:38:19.945Z,2556
2017-08-16T12:39:19.938Z,2832
2017-08-16T12:40:19.638Z,2700
2017-08-16T12:41:19.938Z,2864
2017-08-16T12:42:19.904Z,3004
2017-08-16T12:43:19.908Z,3200
2017-08-16T12:44:19.657Z,3320
2017-08-16T12:45:19.585Z,3120
2017-08-16T12:46:19.594Z,3144
2017-08-16T12:47:19.278Z,2972
2017-08-16T12:48:19.987Z,2596
2017-08-16T12:49:19.281Z,3032
2017-08-16T12:50:19.565Z,2992
2017-08-16T12:51:19.848Z,2948
2017-08-16T12:52:19.531Z,3316
2017-08-16T12:53:19.529Z,3428
2017-08-16T12:54:19.241Z,3240
2017-08-16T12:55:19.218Z,3088
2017-08-16T12:56:19.207Z,3224
2017-08-16T12:57:19.825Z,3036
2017-08-16T12:58:19.847Z,2588
2017-08-16T12:59:19.483Z,1904
2017-08-16T13:00:19.484Z,1888
2017-08-16T13:01:19.828Z,1924
2017-08-16T13:02:19.468Z,2680
2017-08-16T13:03:19.498Z,2656
2017-08-16T13:04:19.762Z,1504
2017-08-16T13:05:19.849Z,1632
2017-08-16T13:06:19.143Z,1492
2017-08-16T13:07:19.758Z,2068
2017-08-16T13:08:19.443Z,1560
2017-08-16T13:09:19.439Z,1596
2017-08-16T13:10:19.427Z,1560
2017-08-16T13:11:19.429Z,1540
2017-08-16T13:12:19.425Z,1576
2017-08-16T13:13:19.399Z,1800
2017-08-16T13:14:19.682Z,1672
2017-08-16T13:15:19.410Z,1700
2017-08-16T13:16:19.382Z,1740
2017-08-16T13:17:19.418Z,1724
2017-08-16T13:18:19.359Z,1716
2017-08-16T13:19:19.355Z,1728
2017-08-16T13:20:19.658Z,1752
2017-08-16T13:21:19.368Z,2280
2017-08-16T13:22:19.628Z,2880
2017-08-16T13:23:19.332Z,3012
2017-08-16T13:24:19.628Z,2776
2017-08-16T13:25:19.298Z,1300
2017-08-16T13:26:19.001Z,1176
2017-08-16T13:27:19.584Z,1156
2017-08-16T13:28:19.589Z,1188
2017-08-16T13:29:19.301Z,1268
2017-08-16T13:30:18.656Z,1336
2017-08-16T13:31:19.277Z,1388
2017-08-16T13:32:18.942Z,1460
2017-08-16T13:33:19.551Z,1528
2017-08-16T13:34:19.235Z,1560
2017-08-16T13:35:19.277Z,1596
2017-08-16T13:36:19.223Z,1636
2017-08-16T13:37:19.559Z,1672
2017-08-16T13:38:19.510Z,1716
2017-08-16T13:39:19.310Z,1744